Česky Dansk Deutsch English Español Suomi Français Magyar Italiano Nederlands norsk Polski Português svenska Türkçe

 

Weather

Leipzig-Schkeuditz (Germany)

02:50, 23 August 2016 (GMT)

NWNNE
WE
SWSSE
Home            
Leipzig-Schkeuditz Altenburg Nobitz Holzdorf Magdeburg, Sachsen-Anhalt Erfurt-Bindersleben Dresden-Klotzsche Hof Berlin-Schoenefeld Berlin-Tempelhof Karlovy Vary Berlin-Tegel Cottbus Flugplatz Braunschweig Bayreuth Preschen Grafenwoehr Kassel / Calden Wittstock Celle Praha / Ruzyne Liberec Fritzlar Hannover

To put a weather button on your web site or blog, copy the code below and paste it into your page . The first box contains HTML code, the second UBB code.


Add to Google

Details

Wind speed:2 bf, 6 kn, 3.1 m/s, 6.9 miles/h, 11.1 km/h
Wind direction:WSW, 240°
Visibility:Greater than 10000 m, 10 km, 32800 ft, 6.2 miles
Clouds:Scattered clouds at 4800 ft, 1463 m
Scattered clouds at 6000 ft, 1829 m
Temperature:17°C, 63°F
Dew-point:14°C, 57°F
Atmospheric pressure:1027 hPa, 770.3 mmHg, 30.33 inHg, 1.014 atm
Relative humidity:82.5 %
METAR:EDDP 230250Z 24006KT 9999 SCT048 SCT060 17/14 Q1027 NOSIG

Shortcuts

An up-to-date overview of weather conditions all over the world. Add locations with the plus (+) sign. These shortcuts can be added to Google.

Lid van de Technetium groep

website free tracking
StatCounter NetStat W3C Validator

09-08-2022 04:05:37
astro.technetium.be money.technetium.be phote.technetium.be tafeltennistafel.technetium.be www.ligfiets.net